createdAt,value
2023-05-18T00:01:58.177Z,14.26
2023-05-18T00:11:59.664Z,14.20
2023-05-18T00:22:02.071Z,14.22
2023-05-18T00:32:03.758Z,14.03
2023-05-18T00:42:05.557Z,13.94
2023-05-18T00:52:07.294Z,13.83
2023-05-18T01:02:09.838Z,13.69
2023-05-18T01:12:11.845Z,13.67
2023-05-18T01:22:34.929Z,13.52
2023-05-18T01:32:40.591Z,13.48
2023-05-18T01:42:46.016Z,13.42
2023-05-18T01:53:09.528Z,13.42
2023-05-18T02:03:13.090Z,13.30
2023-05-18T02:13:14.565Z,13.32
2023-05-18T02:23:17.548Z,13.18
2023-05-18T02:33:19.718Z,13.14
2023-05-18T02:43:21.202Z,13.08
2023-05-18T02:53:22.835Z,13.04
2023-05-18T03:03:25.578Z,12.91
2023-05-18T03:13:27.163Z,12.85
2023-05-18T03:23:28.579Z,12.79
2023-05-18T03:33:30.223Z,12.77
2023-05-18T03:43:32.389Z,12.68
2023-05-18T03:53:36.216Z,12.66
2023-05-18T04:03:37.844Z,12.65
2023-05-18T04:13:39.547Z,12.63
2023-05-18T04:23:41.016Z,12.66
2023-05-18T04:33:42.483Z,12.70
2023-05-18T04:43:43.893Z,12.74
2023-05-18T04:53:45.960Z,12.74
2023-05-18T05:03:47.456Z,12.82
2023-05-18T05:13:48.974Z,12.94
2023-05-18T05:23:50.468Z,13.05
2023-05-18T05:33:52.048Z,13.27
2023-05-18T05:43:53.489Z,14.37
2023-05-18T05:53:55.095Z,15.35
2023-05-18T06:03:56.542Z,16.06
2023-05-18T06:13:57.987Z,16.75
2023-05-18T06:24:01.203Z,17.37
2023-05-18T06:34:02.847Z,18.02
2023-05-18T06:44:04.330Z,18.40
2023-05-18T06:54:05.908Z,18.94
2023-05-18T07:04:07.544Z,19.44
2023-05-18T07:14:09.348Z,19.71
2023-05-18T07:24:10.778Z,20.38
2023-05-18T07:34:13.321Z,20.72
2023-05-18T07:44:14.839Z,21.01
2023-05-18T07:54:16.283Z,21.55
2023-05-18T08:04:17.955Z,22.04
2023-05-18T08:14:19.510Z,22.57
2023-05-18T08:24:20.961Z,23.38
2023-05-18T08:34:22.585Z,24.34
2023-05-18T08:44:26.337Z,26.45
2023-05-18T08:54:27.761Z,29.70
2023-05-18T09:04:29.801Z,32.56
2023-05-18T09:14:32.207Z,34.22
2023-05-18T09:24:34.149Z,34.81
2023-05-18T09:34:42.148Z,34.80
2023-05-18T09:44:44.204Z,34.07
2023-05-18T09:54:53.056Z,32.11
2023-05-18T10:04:54.668Z,28.30
2023-05-18T10:14:56.089Z,25.02
2023-05-18T10:24:57.673Z,23.22
2023-05-18T10:34:59.816Z,22.39
2023-05-18T10:45:01.720Z,21.97
2023-05-18T10:55:06.891Z,21.58
2023-05-18T11:05:09.674Z,21.37
2023-05-18T11:15:11.351Z,21.24
2023-05-18T11:25:28.361Z,21.30
2023-05-18T11:35:30.116Z,21.12
2023-05-18T11:45:31.701Z,20.86
2023-05-18T11:55:41.081Z,20.90
2023-05-18T12:05:48.883Z,20.77
2023-05-18T12:15:50.451Z,20.56
2023-05-18T12:25:51.877Z,20.52
2023-05-18T12:35:54.631Z,20.56
2023-05-18T12:45:56.222Z,20.38
2023-05-18T12:55:59.611Z,20.39
2023-05-18T13:06:05.047Z,20.29
2023-05-18T13:16:16.066Z,20.28
2023-05-18T13:26:18.830Z,20.21
2023-05-18T13:36:20.524Z,20.14
2023-05-18T13:46:22.121Z,20.15
2023-05-18T13:56:23.598Z,20.10
2023-05-18T14:06:27.393Z,20.04
2023-05-18T14:16:29.648Z,20.11
2023-05-18T14:26:31.098Z,20.02
2023-05-18T14:36:33.014Z,19.98
2023-05-18T14:46:35.285Z,19.94
2023-05-18T14:56:36.825Z,19.92
2023-05-18T15:06:38.311Z,19.85
2023-05-18T15:16:39.939Z,19.81
2023-05-18T15:26:41.846Z,19.79
2023-05-18T15:36:43.429Z,19.77
2023-05-18T15:46:44.856Z,19.73
2023-05-18T15:56:46.282Z,19.72
2023-05-18T16:06:47.737Z,19.69
2023-05-18T16:16:49.408Z,19.66
2023-05-18T16:26:50.965Z,19.63
2023-05-18T16:36:52.460Z,19.60
2023-05-18T16:46:54.101Z,19.56
2023-05-18T16:56:55.709Z,19.52
2023-05-18T17:06:57.516Z,19.48
2023-05-18T17:16:58.994Z,19.40
2023-05-18T17:27:00.525Z,19.33
2023-05-18T17:37:02.107Z,19.26
2023-05-18T17:47:03.653Z,19.14
2023-05-18T17:57:05.229Z,19.09
2023-05-18T18:07:06.834Z,18.97
2023-05-18T18:17:08.451Z,18.85
2023-05-18T18:27:09.977Z,18.80
2023-05-18T18:37:11.691Z,18.69
2023-05-18T18:47:13.262Z,18.56
2023-05-18T18:57:14.794Z,18.49
2023-05-18T19:07:16.227Z,18.33
2023-05-18T19:17:17.842Z,18.24
2023-05-18T19:27:19.279Z,18.15
2023-05-18T19:37:20.713Z,18.02
2023-05-18T19:47:22.504Z,17.94
2023-05-18T19:57:26.054Z,17.84
2023-05-18T20:07:27.940Z,17.77
2023-05-18T20:17:29.417Z,17.65
2023-05-18T20:27:31.413Z,17.59
2023-05-18T20:37:34.569Z,17.50
2023-05-18T20:47:36.216Z,17.44
2023-05-18T20:57:40.456Z,17.32
2023-05-18T21:07:41.925Z,17.25
2023-05-18T21:17:43.393Z,17.20
2023-05-18T21:27:44.842Z,17.12
2023-05-18T21:37:46.271Z,17.05
2023-05-18T21:47:50.084Z,16.96
2023-05-18T21:57:51.746Z,16.87
2023-05-18T22:07:53.225Z,16.79
2023-05-18T22:17:55.539Z,16.72
2023-05-18T22:27:57.039Z,16.65
2023-05-18T22:37:58.477Z,16.54
2023-05-18T22:48:00.544Z,16.51
2023-05-18T22:58:02.038Z,16.43
2023-05-18T23:08:04.837Z,16.29
2023-05-18T23:18:09.042Z,16.24
2023-05-18T23:28:10.941Z,16.24
2023-05-18T23:38:12.435Z,16.13
2023-05-18T23:48:14.155Z,16.00
2023-05-18T23:58:18.400Z,15.91
